Aérodrome :
LOGIN :

S'inscrire | Disclaimer

   EN    FR    IT 

 










Légende :    VFR   VFR Marginal   IFR   IFR Intensif   IFR Très Intensif
Visi : 
Plafond : 
>= 8 km
>= 3000ft
5 à 8 km
1000 à 3000 ft
1500m à 5 km
500 à 1000 ft
800 à 1500m
200 à 500 ft
< 800m
< 200 ft
Symboles :   Orages  Brouillard  Fortes neiges  Fortes précipitations  Vent > 20 kt
SIGMETs :   Divers  Orages  Givrage  Turbulence  Onde Orograph.  Cendres Volcan.







- Altitude de l'aérodrome : 1411 ft
- Code IATA : SZG


LOWS - Salzburg

METARs EXPIRÉS :
  • 241420Z VRB05KT 9999 FEW050 BKN300 28/17 Q1016 NOSIG
  • 241350Z 29006KT 240V340 9999 FEW050 BKN300 28/17 Q1016 NOSIG
  • 241320Z 29008KT 240V320 9999 FEW045 SCT300 28/16 Q1016 NOSIG
  • 241250Z 32008KT 9999 FEW045 SCT300 28/17 Q1017 NOSIG
  • 241220Z 31007KT 9999 FEW050 SCT300 27/16 Q1017 NOSIG
  • 241150Z VRB06KT 9999 FEW050 27/15 Q1017 NOSIG

Prévision TAF périmée.
Pas de NOTAMs connus pour ce terrain.
1 SIGMET publié pour la FIR Wien (LOVV) :
 
Orages fréquents
LOVV SIGMET 5 VALID 242305/250015 LOWW
LOVV WIEN FIR FRQ TS OBS WI N4630 E01420 - N4725 E01350 - N4725 E01605 - N4630 E01420 TOP FL410 MOV E NC=



MET'MAP, la Météo Aéronautique d'un coup d'oeil ! - Copyright ORBIFLY Décembre 2007 - Disclaimer

ORBIFLY MET'MAP TEAM :

Programmation & Développement : Alexandra Zaïnal
Conception & Développement : Baudouin d'Aumeries
Co-Programmation & Développement : Marc-Olivier Méhu
Soutien technique & logistique : Manuel Goepfert

Contact : metmap@orbifly.com




SOURCES & CREDITS :

   NOAA